sensor_id;sensor_type;location;lat;lon;timestamp;P1;durP1;ratioP1;P2;durP2;ratioP2
18263;SDS011;9258;48.668;9.172;2022-07-23T00:01:17;5.82;;;4.60;;
18263;SDS011;9258;48.668;9.172;2022-07-23T00:04:19;4.50;;;4.10;;
18263;SDS011;9258;48.668;9.172;2022-07-23T00:07:20;5.20;;;3.72;;
18263;SDS011;9258;48.668;9.172;2022-07-23T00:10:23;4.18;;;3.80;;
18263;SDS011;9258;48.668;9.172;2022-07-23T00:13:24;3.67;;;3.38;;
18263;SDS011;9258;48.668;9.172;2022-07-23T00:16:26;3.72;;;3.42;;
18263;SDS011;9258;48.668;9.172;2022-07-23T00:19:27;3.40;;;3.10;;
18263;SDS011;9258;48.668;9.172;2022-07-23T00:22:30;5.50;;;3.22;;
18263;SDS011;9258;48.668;9.172;2022-07-23T00:25:33;3.40;;;3.10;;
18263;SDS011;9258;48.668;9.172;2022-07-23T00:28:34;3.35;;;3.05;;
18263;SDS011;9258;48.668;9.172;2022-07-23T00:31:36;3.20;;;2.90;;
18263;SDS011;9258;48.668;9.172;2022-07-23T00:34:37;4.55;;;3.20;;
18263;SDS011;9258;48.668;9.172;2022-07-23T00:37:39;3.20;;;2.88;;
18263;SDS011;9258;48.668;9.172;2022-07-23T00:40:41;3.20;;;2.90;;
18263;SDS011;9258;48.668;9.172;2022-07-23T00:43:43;3.83;;;2.88;;
18263;SDS011;9258;48.668;9.172;2022-07-23T00:46:45;2.90;;;2.70;;
18263;SDS011;9258;48.668;9.172;2022-07-23T00:49:47;5.07;;;2.90;;
18263;SDS011;9258;48.668;9.172;2022-07-23T00:52:49;5.05;;;2.85;;
18263;SDS011;9258;48.668;9.172;2022-07-23T00:55:52;2.72;;;2.53;;
18263;SDS011;9258;48.668;9.172;2022-07-23T00:58:54;2.83;;;2.50;;
18263;SDS011;9258;48.668;9.172;2022-07-23T01:01:56;3.20;;;2.90;;
18263;SDS011;9258;48.668;9.172;2022-07-23T01:04:57;3.28;;;2.90;;
18263;SDS011;9258;48.668;9.172;2022-07-23T01:07:59;3.30;;;3.00;;
18263;SDS011;9258;48.668;9.172;2022-07-23T01:11:03;3.45;;;2.83;;
18263;SDS011;9258;48.668;9.172;2022-07-23T01:14:11;4.47;;;3.05;;
18263;SDS011;9258;48.668;9.172;2022-07-23T01:17:14;4.97;;;2.97;;
18263;SDS011;9258;48.668;9.172;2022-07-23T01:20:15;3.03;;;2.75;;
18263;SDS011;9258;48.668;9.172;2022-07-23T01:23:18;4.20;;;3.00;;
18263;SDS011;9258;48.668;9.172;2022-07-23T01:26:20;3.80;;;3.35;;
18263;SDS011;9258;48.668;9.172;2022-07-23T01:29:21;5.45;;;3.17;;
18263;SDS011;9258;48.668;9.172;2022-07-23T01:32:23;3.58;;;3.28;;
18263;SDS011;9258;48.668;9.172;2022-07-23T01:35:24;3.08;;;2.83;;
18263;SDS011;9258;48.668;9.172;2022-07-23T01:38:27;3.35;;;3.05;;
18263;SDS011;9258;48.668;9.172;2022-07-23T01:41:29;3.58;;;3.20;;
18263;SDS011;9258;48.668;9.172;2022-07-23T01:44:30;3.83;;;3.42;;
18263;SDS011;9258;48.668;9.172;2022-07-23T01:47:32;3.78;;;3.28;;
18263;SDS011;9258;48.668;9.172;2022-07-23T01:50:34;4.35;;;3.42;;
18263;SDS011;9258;48.668;9.172;2022-07-23T01:53:36;3.80;;;3.40;;
18263;SDS011;9258;48.668;9.172;2022-07-23T01:56:38;3.35;;;3.00;;
18263;SDS011;9258;48.668;9.172;2022-07-23T01:59:39;3.92;;;3.30;;
18263;SDS011;9258;48.668;9.172;2022-07-23T02:02:41;3.55;;;3.25;;
18263;SDS011;9258;48.668;9.172;2022-07-23T02:05:42;4.28;;;3.47;;
18263;SDS011;9258;48.668;9.172;2022-07-23T02:08:45;4.35;;;3.22;;
18263;SDS011;9258;48.668;9.172;2022-07-23T02:11:47;4.95;;;3.00;;
18263;SDS011;9258;48.668;9.172;2022-07-23T02:14:48;3.90;;;3.42;;
18263;SDS011;9258;48.668;9.172;2022-07-23T02:17:50;5.32;;;3.55;;
18263;SDS011;9258;48.668;9.172;2022-07-23T02:20:52;4.78;;;3.35;;
18263;SDS011;9258;48.668;9.172;2022-07-23T02:23:54;3.83;;;3.33;;
18263;SDS011;9258;48.668;9.172;2022-07-23T02:26:56;4.07;;;3.30;;
18263;SDS011;9258;48.668;9.172;2022-07-23T02:29:58;4.82;;;3.45;;
18263;SDS011;9258;48.668;9.172;2022-07-23T02:32:59;4.80;;;3.42;;
18263;SDS011;9258;48.668;9.172;2022-07-23T02:36:01;4.03;;;3.35;;
18263;SDS011;9258;48.668;9.172;2022-07-23T02:39:04;3.88;;;3.53;;
18263;SDS011;9258;48.668;9.172;2022-07-23T02:42:05;4.30;;;2.90;;
18263;SDS011;9258;48.668;9.172;2022-07-23T02:45:07;3.60;;;3.30;;
18263;SDS011;9258;48.668;9.172;2022-07-23T02:48:09;4.40;;;3.28;;
18263;SDS011;9258;48.668;9.172;2022-07-23T02:51:12;3.42;;;3.13;;
18263;SDS011;9258;48.668;9.172;2022-07-23T02:54:15;4.50;;;3.40;;
18263;SDS011;9258;48.668;9.172;2022-07-23T02:57:16;4.03;;;3.20;;
18263;SDS011;9258;48.668;9.172;2022-07-23T03:00:18;3.33;;;3.03;;
18263;SDS011;9258;48.668;9.172;2022-07-23T03:03:19;3.58;;;3.10;;
18263;SDS011;9258;48.668;9.172;2022-07-23T03:06:21;3.95;;;3.65;;
18263;SDS011;9258;48.668;9.172;2022-07-23T03:09:24;4.15;;;3.75;;
18263;SDS011;9258;48.668;9.172;2022-07-23T03:12:25;4.40;;;3.42;;
18263;SDS011;9258;48.668;9.172;2022-07-23T03:15:27;3.90;;;3.50;;
18263;SDS011;9258;48.668;9.172;2022-07-23T03:18:28;4.15;;;3.28;;
18263;SDS011;9258;48.668;9.172;2022-07-23T03:21:30;3.38;;;3.08;;
18263;SDS011;9258;48.668;9.172;2022-07-23T03:24:33;3.08;;;2.88;;
18263;SDS011;9258;48.668;9.172;2022-07-23T03:27:51;4.78;;;3.20;;
18263;SDS011;9258;48.668;9.172;2022-07-23T03:30:53;3.20;;;2.90;;
18263;SDS011;9258;48.668;9.172;2022-07-23T03:33:54;4.30;;;3.58;;
18263;SDS011;9258;48.668;9.172;2022-07-23T03:36:56;3.83;;;3.28;;
18263;SDS011;9258;48.668;9.172;2022-07-23T03:39:59;3.85;;;3.28;;
18263;SDS011;9258;48.668;9.172;2022-07-23T03:43:02;4.78;;;3.50;;
18263;SDS011;9258;48.668;9.172;2022-07-23T03:46:03;3.65;;;3.10;;
18263;SDS011;9258;48.668;9.172;2022-07-23T03:49:05;4.75;;;3.47;;
18263;SDS011;9258;48.668;9.172;2022-07-23T03:52:06;4.40;;;3.63;;
18263;SDS011;9258;48.668;9.172;2022-07-23T03:55:09;4.20;;;3.80;;
18263;SDS011;9258;48.668;9.172;2022-07-23T03:58:11;3.83;;;3.40;;
18263;SDS011;9258;48.668;9.172;2022-07-23T04:01:12;3.78;;;3.47;;
18263;SDS011;9258;48.668;9.172;2022-07-23T04:04:14;3.70;;;3.40;;
18263;SDS011;9258;48.668;9.172;2022-07-23T04:07:16;6.70;;;3.72;;
18263;SDS011;9258;48.668;9.172;2022-07-23T04:10:19;4.68;;;3.60;;
18263;SDS011;9258;48.668;9.172;2022-07-23T04:13:21;4.00;;;3.60;;
18263;SDS011;9258;48.668;9.172;2022-07-23T04:16:22;4.68;;;4.25;;
18263;SDS011;9258;48.668;9.172;2022-07-23T04:19:24;5.78;;;3.90;;
18263;SDS011;9258;48.668;9.172;2022-07-23T04:22:25;5.07;;;4.32;;
18263;SDS011;9258;48.668;9.172;2022-07-23T04:25:28;4.70;;;3.47;;
18263;SDS011;9258;48.668;9.172;2022-07-23T04:28:29;6.88;;;4.00;;
18263;SDS011;9258;48.668;9.172;2022-07-23T04:31:31;4.60;;;4.10;;
18263;SDS011;9258;48.668;9.172;2022-07-23T04:34:32;5.03;;;3.88;;
18263;SDS011;9258;48.668;9.172;2022-07-23T04:37:34;4.45;;;4.05;;
18263;SDS011;9258;48.668;9.172;2022-07-23T04:40:37;5.22;;;4.18;;
18263;SDS011;9258;48.668;9.172;2022-07-23T04:43:38;4.60;;;4.18;;
18263;SDS011;9258;48.668;9.172;2022-07-23T04:46:41;5.57;;;4.30;;
18263;SDS011;9258;48.668;9.172;2022-07-23T04:49:42;4.28;;;3.88;;
18263;SDS011;9258;48.668;9.172;2022-07-23T04:52:44;7.10;;;4.78;;
18263;SDS011;9258;48.668;9.172;2022-07-23T04:55:46;5.07;;;4.57;;
18263;SDS011;9258;48.668;9.172;2022-07-23T04:58:48;5.22;;;4.75;;
18263;SDS011;9258;48.668;9.172;2022-07-23T05:01:49;5.32;;;4.82;;
18263;SDS011;9258;48.668;9.172;2022-07-23T05:04:51;4.80;;;4.38;;
18263;SDS011;9258;48.668;9.172;2022-07-23T05:07:52;5.05;;;4.55;;
18263;SDS011;9258;48.668;9.172;2022-07-23T05:10:55;4.93;;;4.47;;
18263;SDS011;9258;48.668;9.172;2022-07-23T05:13:57;5.25;;;4.75;;
18263;SDS011;9258;48.668;9.172;2022-07-23T05:16:58;8.23;;;5.10;;
18263;SDS011;9258;48.668;9.172;2022-07-23T05:20:00;5.13;;;4.50;;
18263;SDS011;9258;48.668;9.172;2022-07-23T05:23:01;5.78;;;4.65;;
18263;SDS011;9258;48.668;9.172;2022-07-23T05:26:04;4.90;;;4.32;;
18263;SDS011;9258;48.668;9.172;2022-07-23T05:29:06;7.20;;;4.60;;
18263;SDS011;9258;48.668;9.172;2022-07-23T05:32:07;4.93;;;4.15;;
18263;SDS011;9258;48.668;9.172;2022-07-23T05:35:09;5.20;;;4.68;;
18263;SDS011;9258;48.668;9.172;2022-07-23T05:38:10;5.45;;;4.75;;
18263;SDS011;9258;48.668;9.172;2022-07-23T05:41:13;5.47;;;4.40;;
18263;SDS011;9258;48.668;9.172;2022-07-23T05:44:14;4.82;;;4.43;;
18263;SDS011;9258;48.668;9.172;2022-07-23T05:47:16;4.97;;;4.50;;
18263;SDS011;9258;48.668;9.172;2022-07-23T05:50:18;4.55;;;4.15;;
18263;SDS011;9258;48.668;9.172;2022-07-23T05:53:20;4.78;;;4.28;;
18263;SDS011;9258;48.668;9.172;2022-07-23T05:56:22;4.78;;;4.38;;
18263;SDS011;9258;48.668;9.172;2022-07-23T05:59:24;4.82;;;4.43;;
18263;SDS011;9258;48.668;9.172;2022-07-23T06:02:25;4.70;;;4.30;;
18263;SDS011;9258;48.668;9.172;2022-07-23T06:05:27;4.78;;;4.32;;
18263;SDS011;9258;48.668;9.172;2022-07-23T06:08:28;5.43;;;4.53;;
18263;SDS011;9258;48.668;9.172;2022-07-23T06:11:31;5.15;;;4.70;;
18263;SDS011;9258;48.668;9.172;2022-07-23T06:14:33;6.22;;;4.80;;
18263;SDS011;9258;48.668;9.172;2022-07-23T06:17:34;5.00;;;4.55;;
18263;SDS011;9258;48.668;9.172;2022-07-23T06:20:38;6.07;;;4.97;;
18263;SDS011;9258;48.668;9.172;2022-07-23T06:23:40;5.68;;;4.95;;
18263;SDS011;9258;48.668;9.172;2022-07-23T06:26:43;4.95;;;4.55;;
18263;SDS011;9258;48.668;9.172;2022-07-23T06:29:45;5.47;;;4.97;;
18263;SDS011;9258;48.668;9.172;2022-07-23T06:32:47;6.50;;;5.72;;
18263;SDS011;9258;48.668;9.172;2022-07-23T06:35:49;7.00;;;5.63;;
18263;SDS011;9258;48.668;9.172;2022-07-23T06:38:50;7.40;;;5.43;;
18263;SDS011;9258;48.668;9.172;2022-07-23T06:41:53;7.90;;;5.40;;
18263;SDS011;9258;48.668;9.172;2022-07-23T06:44:55;8.38;;;4.78;;
18263;SDS011;9258;48.668;9.172;2022-07-23T06:47:56;6.90;;;5.80;;
18263;SDS011;9258;48.668;9.172;2022-07-23T06:50:58;5.32;;;4.82;;
18263;SDS011;9258;48.668;9.172;2022-07-23T06:53:59;6.05;;;5.18;;
18263;SDS011;9258;48.668;9.172;2022-07-23T06:57:02;5.25;;;4.80;;
18263;SDS011;9258;48.668;9.172;2022-07-23T07:00:04;5.25;;;4.80;;
18263;SDS011;9258;48.668;9.172;2022-07-23T07:03:07;5.57;;;4.70;;
18263;SDS011;9258;48.668;9.172;2022-07-23T07:06:08;6.95;;;4.70;;
18263;SDS011;9258;48.668;9.172;2022-07-23T07:09:10;8.35;;;5.00;;
18263;SDS011;9258;48.668;9.172;2022-07-23T07:12:13;6.35;;;5.40;;
18263;SDS011;9258;48.668;9.172;2022-07-23T07:15:14;6.55;;;4.90;;
18263;SDS011;9258;48.668;9.172;2022-07-23T07:18:16;5.18;;;4.18;;
18263;SDS011;9258;48.668;9.172;2022-07-23T07:21:18;7.50;;;4.65;;
18263;SDS011;9258;48.668;9.172;2022-07-23T07:24:19;5.90;;;4.90;;
18263;SDS011;9258;48.668;9.172;2022-07-23T07:27:22;5.13;;;4.40;;
18263;SDS011;9258;48.668;9.172;2022-07-23T07:30:23;5.65;;;5.03;;
18263;SDS011;9258;48.668;9.172;2022-07-23T07:33:25;5.35;;;4.65;;
18263;SDS011;9258;48.668;9.172;2022-07-23T07:36:26;5.05;;;4.55;;
18263;SDS011;9258;48.668;9.172;2022-07-23T07:39:28;4.80;;;4.40;;
18263;SDS011;9258;48.668;9.172;2022-07-23T07:42:31;5.20;;;4.72;;
18263;SDS011;9258;48.668;9.172;2022-07-23T07:45:32;5.07;;;4.57;;
18263;SDS011;9258;48.668;9.172;2022-07-23T07:48:34;5.30;;;4.80;;
18263;SDS011;9258;48.668;9.172;2022-07-23T07:51:35;6.40;;;4.82;;
18263;SDS011;9258;48.668;9.172;2022-07-23T07:54:37;5.25;;;4.75;;
18263;SDS011;9258;48.668;9.172;2022-07-23T07:57:39;9.48;;;5.57;;
18263;SDS011;9258;48.668;9.172;2022-07-23T08:00:41;6.75;;;5.35;;
18263;SDS011;9258;48.668;9.172;2022-07-23T08:03:43;7.05;;;6.18;;
18263;SDS011;9258;48.668;9.172;2022-07-23T08:06:44;7.07;;;4.93;;
18263;SDS011;9258;48.668;9.172;2022-07-23T08:09:46;6.80;;;5.50;;
18263;SDS011;9258;48.668;9.172;2022-07-23T08:12:49;5.10;;;4.60;;
18263;SDS011;9258;48.668;9.172;2022-07-23T08:15:53;7.18;;;4.70;;
18263;SDS011;9258;48.668;9.172;2022-07-23T08:18:54;5.32;;;4.90;;
18263;SDS011;9258;48.668;9.172;2022-07-23T08:21:56;5.65;;;4.93;;
18263;SDS011;9258;48.668;9.172;2022-07-23T08:24:57;5.30;;;4.80;;
18263;SDS011;9258;48.668;9.172;2022-07-23T08:28:01;5.50;;;5.00;;
18263;SDS011;9258;48.668;9.172;2022-07-23T08:31:04;5.60;;;5.15;;
18263;SDS011;9258;48.668;9.172;2022-07-23T08:34:06;5.88;;;5.25;;
18263;SDS011;9258;48.668;9.172;2022-07-23T08:37:08;5.60;;;5.10;;
18263;SDS011;9258;48.668;9.172;2022-07-23T08:40:10;5.20;;;4.80;;
18263;SDS011;9258;48.668;9.172;2022-07-23T08:43:14;7.38;;;5.10;;
18263;SDS011;9258;48.668;9.172;2022-07-23T08:46:17;5.18;;;4.68;;
18263;SDS011;9258;48.668;9.172;2022-07-23T08:49:20;6.70;;;5.00;;
18263;SDS011;9258;48.668;9.172;2022-07-23T08:52:22;5.88;;;5.30;;
18263;SDS011;9258;48.668;9.172;2022-07-23T08:55:24;5.72;;;5.18;;
18263;SDS011;9258;48.668;9.172;2022-07-23T08:58:27;4.85;;;4.32;;
18263;SDS011;9258;48.668;9.172;2022-07-23T09:01:29;5.43;;;5.03;;
18263;SDS011;9258;48.668;9.172;2022-07-23T09:04:31;5.28;;;4.75;;
18263;SDS011;9258;48.668;9.172;2022-07-23T09:07:33;6.40;;;4.95;;
18263;SDS011;9258;48.668;9.172;2022-07-23T09:10:44;5.03;;;4.63;;
18263;SDS011;9258;48.668;9.172;2022-07-23T09:13:52;6.00;;;5.25;;
18263;SDS011;9258;48.668;9.172;2022-07-23T09:17:07;5.05;;;4.65;;
18263;SDS011;9258;48.668;9.172;2022-07-23T09:20:10;5.70;;;5.20;;
18263;SDS011;9258;48.668;9.172;2022-07-23T09:23:13;6.10;;;5.60;;
18263;SDS011;9258;48.668;9.172;2022-07-23T09:26:16;6.10;;;5.50;;
18263;SDS011;9258;48.668;9.172;2022-07-23T09:29:21;6.85;;;6.25;;
18263;SDS011;9258;48.668;9.172;2022-07-23T09:32:24;5.35;;;4.90;;
18263;SDS011;9258;48.668;9.172;2022-07-23T09:35:28;6.82;;;5.57;;
18263;SDS011;9258;48.668;9.172;2022-07-23T09:38:48;6.03;;;5.53;;
18263;SDS011;9258;48.668;9.172;2022-07-23T09:41:51;6.15;;;5.38;;
18263;SDS011;9258;48.668;9.172;2022-07-23T09:44:55;5.65;;;5.22;;
18263;SDS011;9258;48.668;9.172;2022-07-23T09:48:09;6.18;;;5.57;;
18263;SDS011;9258;48.668;9.172;2022-07-23T09:51:11;6.10;;;5.70;;
18263;SDS011;9258;48.668;9.172;2022-07-23T09:54:29;7.32;;;5.38;;
18263;SDS011;9258;48.668;9.172;2022-07-23T09:57:32;6.30;;;5.70;;
18263;SDS011;9258;48.668;9.172;2022-07-23T10:00:35;6.28;;;5.78;;
18263;SDS011;9258;48.668;9.172;2022-07-23T10:03:37;5.82;;;5.43;;
18263;SDS011;9258;48.668;9.172;2022-07-23T10:06:39;6.40;;;5.80;;
18263;SDS011;9258;48.668;9.172;2022-07-23T10:09:44;15.25;;;6.97;;
18263;SDS011;9258;48.668;9.172;2022-07-23T10:12:50;7.72;;;6.55;;
18263;SDS011;9258;48.668;9.172;2022-07-23T10:16:07;11.10;;;6.80;;
18263;SDS011;9258;48.668;9.172;2022-07-23T10:19:09;9.50;;;7.00;;
18263;SDS011;9258;48.668;9.172;2022-07-23T10:22:11;8.07;;;7.47;;
18263;SDS011;9258;48.668;9.172;2022-07-23T10:25:16;7.50;;;6.68;;
18263;SDS011;9258;48.668;9.172;2022-07-23T10:28:33;7.30;;;6.70;;
18263;SDS011;9258;48.668;9.172;2022-07-23T10:31:50;6.60;;;6.03;;
18263;SDS011;9258;48.668;9.172;2022-07-23T10:34:58;6.90;;;6.30;;
18263;SDS011;9258;48.668;9.172;2022-07-23T10:38:11;7.88;;;7.13;;
18263;SDS011;9258;48.668;9.172;2022-07-23T10:41:15;7.57;;;6.85;;
18263;SDS011;9258;48.668;9.172;2022-07-23T10:44:37;6.75;;;6.25;;
18263;SDS011;9258;48.668;9.172;2022-07-23T10:47:42;7.40;;;6.78;;
18263;SDS011;9258;48.668;9.172;2022-07-23T10:50:44;6.78;;;6.28;;
18263;SDS011;9258;48.668;9.172;2022-07-23T10:54:10;6.50;;;5.90;;
18263;SDS011;9258;48.668;9.172;2022-07-23T10:57:22;6.80;;;6.30;;
18263;SDS011;9258;48.668;9.172;2022-07-23T11:00:25;7.07;;;6.47;;
18263;SDS011;9258;48.668;9.172;2022-07-23T11:03:34;6.18;;;5.63;;
18263;SDS011;9258;48.668;9.172;2022-07-23T11:10:14;5.93;;;5.50;;
18263;SDS011;9258;48.668;9.172;2022-07-23T11:16:53;5.63;;;5.13;;
18263;SDS011;9258;48.668;9.172;2022-07-23T11:23:24;5.85;;;5.35;;
18263;SDS011;9258;48.668;9.172;2022-07-23T11:27:03;5.97;;;5.47;;
18263;SDS011;9258;48.668;9.172;2022-07-23T11:30:05;6.05;;;5.55;;
18263;SDS011;9258;48.668;9.172;2022-07-23T11:36:33;6.05;;;5.35;;
18263;SDS011;9258;48.668;9.172;2022-07-23T11:39:49;6.28;;;5.78;;
18263;SDS011;9258;48.668;9.172;2022-07-23T11:42:56;5.88;;;5.32;;
18263;SDS011;9258;48.668;9.172;2022-07-23T11:45:59;6.60;;;6.00;;
18263;SDS011;9258;48.668;9.172;2022-07-23T11:49:02;5.53;;;5.13;;
18263;SDS011;9258;48.668;9.172;2022-07-23T11:52:05;6.78;;;5.15;;
18263;SDS011;9258;48.668;9.172;2022-07-23T11:55:09;5.63;;;5.13;;
18263;SDS011;9258;48.668;9.172;2022-07-23T11:58:11;6.10;;;5.50;;
18263;SDS011;9258;48.668;9.172;2022-07-23T12:01:13;5.70;;;5.07;;
18263;SDS011;9258;48.668;9.172;2022-07-23T12:04:14;6.03;;;5.53;;
18263;SDS011;9258;48.668;9.172;2022-07-23T12:07:30;5.72;;;5.13;;
18263;SDS011;9258;48.668;9.172;2022-07-23T12:10:34;5.90;;;5.40;;
18263;SDS011;9258;48.668;9.172;2022-07-23T12:13:37;5.72;;;5.22;;
18263;SDS011;9258;48.668;9.172;2022-07-23T12:16:38;6.53;;;6.03;;
18263;SDS011;9258;48.668;9.172;2022-07-23T12:19:40;5.97;;;5.40;;
18263;SDS011;9258;48.668;9.172;2022-07-23T12:22:45;6.45;;;5.70;;
18263;SDS011;9258;48.668;9.172;2022-07-23T12:25:49;6.10;;;5.60;;
18263;SDS011;9258;48.668;9.172;2022-07-23T12:28:52;6.82;;;6.22;;
18263;SDS011;9258;48.668;9.172;2022-07-23T12:31:54;6.55;;;5.95;;
18263;SDS011;9258;48.668;9.172;2022-07-23T12:35:04;6.68;;;6.18;;
18263;SDS011;9258;48.668;9.172;2022-07-23T12:38:10;6.63;;;6.10;;
18263;SDS011;9258;48.668;9.172;2022-07-23T12:41:12;6.63;;;6.13;;
18263;SDS011;9258;48.668;9.172;2022-07-23T12:44:14;6.78;;;6.28;;
18263;SDS011;9258;48.668;9.172;2022-07-23T12:47:16;6.90;;;6.40;;
18263;SDS011;9258;48.668;9.172;2022-07-23T12:53:43;6.22;;;5.72;;
18263;SDS011;9258;48.668;9.172;2022-07-23T12:56:45;6.45;;;5.95;;
18263;SDS011;9258;48.668;9.172;2022-07-23T12:59:46;7.22;;;6.60;;
18263;SDS011;9258;48.668;9.172;2022-07-23T13:02:48;6.40;;;5.90;;
18263;SDS011;9258;48.668;9.172;2022-07-23T13:05:50;7.55;;;6.82;;
18263;SDS011;9258;48.668;9.172;2022-07-23T13:08:53;11.65;;;6.82;;
18263;SDS011;9258;48.668;9.172;2022-07-23T13:11:55;6.18;;;5.68;;
18263;SDS011;9258;48.668;9.172;2022-07-23T13:14:59;6.70;;;6.15;;
18263;SDS011;9258;48.668;9.172;2022-07-23T13:18:00;6.65;;;6.15;;
18263;SDS011;9258;48.668;9.172;2022-07-23T13:21:02;7.55;;;5.93;;
18263;SDS011;9258;48.668;9.172;2022-07-23T13:24:05;7.07;;;6.22;;
18263;SDS011;9258;48.668;9.172;2022-07-23T13:27:07;6.53;;;6.03;;
18263;SDS011;9258;48.668;9.172;2022-07-23T13:30:09;6.85;;;6.25;;
18263;SDS011;9258;48.668;9.172;2022-07-23T13:33:12;6.32;;;5.82;;
18263;SDS011;9258;48.668;9.172;2022-07-23T13:36:13;6.75;;;6.18;;
18263;SDS011;9258;48.668;9.172;2022-07-23T13:39:16;7.43;;;6.50;;
18263;SDS011;9258;48.668;9.172;2022-07-23T13:42:17;5.85;;;5.35;;
18263;SDS011;9258;48.668;9.172;2022-07-23T13:45:19;6.40;;;5.90;;
18263;SDS011;9258;48.668;9.172;2022-07-23T13:48:21;5.93;;;5.43;;
18263;SDS011;9258;48.668;9.172;2022-07-23T13:51:23;6.30;;;5.70;;
18263;SDS011;9258;48.668;9.172;2022-07-23T13:54:26;5.53;;;5.03;;
18263;SDS011;9258;48.668;9.172;2022-07-23T13:57:28;6.57;;;5.97;;
18263;SDS011;9258;48.668;9.172;2022-07-23T14:00:29;5.68;;;5.18;;
18263;SDS011;9258;48.668;9.172;2022-07-23T14:03:32;6.13;;;5.53;;
18263;SDS011;9258;48.668;9.172;2022-07-23T14:06:33;9.93;;;5.70;;
18263;SDS011;9258;48.668;9.172;2022-07-23T14:09:36;7.22;;;5.75;;
18263;SDS011;9258;48.668;9.172;2022-07-23T14:12:38;6.97;;;5.80;;
18263;SDS011;9258;48.668;9.172;2022-07-23T14:15:39;6.18;;;5.57;;
18263;SDS011;9258;48.668;9.172;2022-07-23T14:18:41;5.88;;;5.32;;
18263;SDS011;9258;48.668;9.172;2022-07-23T14:21:42;6.00;;;5.43;;
18263;SDS011;9258;48.668;9.172;2022-07-23T14:24:45;6.10;;;5.55;;
18263;SDS011;9258;48.668;9.172;2022-07-23T14:27:47;5.47;;;4.97;;
18263;SDS011;9258;48.668;9.172;2022-07-23T14:30:48;6.00;;;5.38;;
18263;SDS011;9258;48.668;9.172;2022-07-23T14:33:50;5.93;;;5.47;;
18263;SDS011;9258;48.668;9.172;2022-07-23T14:36:51;6.53;;;5.93;;
18263;SDS011;9258;48.668;9.172;2022-07-23T14:39:54;6.28;;;5.68;;
18263;SDS011;9258;48.668;9.172;2022-07-23T14:42:56;6.65;;;5.97;;
18263;SDS011;9258;48.668;9.172;2022-07-23T14:45:57;5.88;;;5.28;;
18263;SDS011;9258;48.668;9.172;2022-07-23T14:48:59;6.10;;;5.70;;
18263;SDS011;9258;48.668;9.172;2022-07-23T14:52:00;5.60;;;5.10;;
18263;SDS011;9258;48.668;9.172;2022-07-23T14:55:04;6.70;;;5.68;;
18263;SDS011;9258;48.668;9.172;2022-07-23T14:58:06;6.10;;;5.60;;
18263;SDS011;9258;48.668;9.172;2022-07-23T15:01:07;6.70;;;6.10;;
18263;SDS011;9258;48.668;9.172;2022-07-23T15:04:09;6.28;;;5.60;;
18263;SDS011;9258;48.668;9.172;2022-07-23T15:07:10;6.07;;;5.57;;
18263;SDS011;9258;48.668;9.172;2022-07-23T15:10:13;6.10;;;5.50;;
18263;SDS011;9258;48.668;9.172;2022-07-23T15:13:15;6.88;;;6.18;;
18263;SDS011;9258;48.668;9.172;2022-07-23T15:16:17;6.13;;;5.63;;
18263;SDS011;9258;48.668;9.172;2022-07-23T15:19:18;6.15;;;5.65;;
18263;SDS011;9258;48.668;9.172;2022-07-23T15:22:20;6.32;;;5.72;;
18263;SDS011;9258;48.668;9.172;2022-07-23T15:25:23;5.50;;;5.10;;
18263;SDS011;9258;48.668;9.172;2022-07-23T15:28:25;6.25;;;5.65;;
18263;SDS011;9258;48.668;9.172;2022-07-23T15:31:26;5.40;;;5.00;;
18263;SDS011;9258;48.668;9.172;2022-07-23T15:34:28;5.60;;;5.10;;
18263;SDS011;9258;48.668;9.172;2022-07-23T15:37:30;6.10;;;5.63;;
18263;SDS011;9258;48.668;9.172;2022-07-23T15:40:33;5.80;;;5.30;;
18263;SDS011;9258;48.668;9.172;2022-07-23T15:43:35;5.80;;;5.28;;
18263;SDS011;9258;48.668;9.172;2022-07-23T15:46:36;6.28;;;5.53;;
18263;SDS011;9258;48.668;9.172;2022-07-23T15:49:38;5.90;;;5.22;;
18263;SDS011;9258;48.668;9.172;2022-07-23T15:52:39;6.57;;;5.97;;
18263;SDS011;9258;48.668;9.172;2022-07-23T15:55:42;5.95;;;5.40;;
18263;SDS011;9258;48.668;9.172;2022-07-23T15:58:45;6.05;;;5.15;;
18263;SDS011;9258;48.668;9.172;2022-07-23T16:01:47;6.22;;;5.60;;
18263;SDS011;9258;48.668;9.172;2022-07-23T16:04:48;6.85;;;5.43;;
18263;SDS011;9258;48.668;9.172;2022-07-23T16:07:50;9.00;;;5.80;;
18263;SDS011;9258;48.668;9.172;2022-07-23T16:10:53;6.47;;;5.90;;
18263;SDS011;9258;48.668;9.172;2022-07-23T16:13:56;7.15;;;5.85;;
18263;SDS011;9258;48.668;9.172;2022-07-23T16:16:58;5.32;;;4.93;;
18263;SDS011;9258;48.668;9.172;2022-07-23T16:20:00;7.10;;;5.47;;
18263;SDS011;9258;48.668;9.172;2022-07-23T16:23:02;6.15;;;5.65;;
18263;SDS011;9258;48.668;9.172;2022-07-23T16:26:05;6.85;;;5.93;;
18263;SDS011;9258;48.668;9.172;2022-07-23T16:29:06;8.07;;;5.63;;
18263;SDS011;9258;48.668;9.172;2022-07-23T16:32:08;6.63;;;6.03;;
18263;SDS011;9258;48.668;9.172;2022-07-23T16:35:10;6.72;;;6.05;;
18263;SDS011;9258;48.668;9.172;2022-07-23T16:38:12;7.35;;;6.57;;
18263;SDS011;9258;48.668;9.172;2022-07-23T16:41:15;6.10;;;5.50;;
18263;SDS011;9258;48.668;9.172;2022-07-23T16:44:17;6.47;;;5.88;;
18263;SDS011;9258;48.668;9.172;2022-07-23T16:47:18;6.13;;;5.63;;
18263;SDS011;9258;48.668;9.172;2022-07-23T16:50:20;6.57;;;5.95;;
18263;SDS011;9258;48.668;9.172;2022-07-23T16:53:22;6.20;;;5.70;;
18263;SDS011;9258;48.668;9.172;2022-07-23T16:56:25;6.10;;;5.50;;
18263;SDS011;9258;48.668;9.172;2022-07-23T16:59:26;6.30;;;5.70;;
18263;SDS011;9258;48.668;9.172;2022-07-23T17:02:28;6.05;;;5.55;;
18263;SDS011;9258;48.668;9.172;2022-07-23T17:05:29;6.72;;;6.13;;
18263;SDS011;9258;48.668;9.172;2022-07-23T17:08:31;5.80;;;5.30;;
18263;SDS011;9258;48.668;9.172;2022-07-23T17:11:34;6.00;;;5.40;;
18263;SDS011;9258;48.668;9.172;2022-07-23T17:14:36;6.10;;;5.50;;
18263;SDS011;9258;48.668;9.172;2022-07-23T17:17:37;7.57;;;6.20;;
18263;SDS011;9258;48.668;9.172;2022-07-23T17:20:39;8.80;;;6.60;;
18263;SDS011;9258;48.668;9.172;2022-07-23T17:23:41;6.68;;;5.88;;
18263;SDS011;9258;48.668;9.172;2022-07-23T17:26:44;6.90;;;5.75;;
18263;SDS011;9258;48.668;9.172;2022-07-23T17:29:45;7.10;;;5.90;;
18263;SDS011;9258;48.668;9.172;2022-07-23T17:32:47;6.43;;;5.78;;
18263;SDS011;9258;48.668;9.172;2022-07-23T17:35:49;6.43;;;5.82;;
18263;SDS011;9258;48.668;9.172;2022-07-23T17:38:52;7.72;;;6.57;;
18263;SDS011;9258;48.668;9.172;2022-07-23T17:41:55;7.32;;;5.93;;
18263;SDS011;9258;48.668;9.172;2022-07-23T17:44:57;7.15;;;5.93;;
18263;SDS011;9258;48.668;9.172;2022-07-23T17:47:58;11.05;;;6.65;;
18263;SDS011;9258;48.668;9.172;2022-07-23T17:51:00;7.80;;;6.65;;
18263;SDS011;9258;48.668;9.172;2022-07-23T17:54:02;6.50;;;5.90;;
18263;SDS011;9258;48.668;9.172;2022-07-23T17:57:06;8.45;;;5.85;;
18263;SDS011;9258;48.668;9.172;2022-07-23T18:00:08;6.95;;;6.32;;
18263;SDS011;9258;48.668;9.172;2022-07-23T18:03:12;7.82;;;6.75;;
18263;SDS011;9258;48.668;9.172;2022-07-23T18:06:13;7.43;;;6.60;;
18263;SDS011;9258;48.668;9.172;2022-07-23T18:09:15;7.53;;;5.95;;
18263;SDS011;9258;48.668;9.172;2022-07-23T18:12:17;8.07;;;6.10;;
18263;SDS011;9258;48.668;9.172;2022-07-23T18:15:19;7.35;;;6.63;;
18263;SDS011;9258;48.668;9.172;2022-07-23T18:18:20;7.28;;;6.57;;
18263;SDS011;9258;48.668;9.172;2022-07-23T18:21:22;7.25;;;6.57;;
18263;SDS011;9258;48.668;9.172;2022-07-23T18:24:24;7.38;;;6.68;;
18263;SDS011;9258;48.668;9.172;2022-07-23T18:27:27;7.13;;;6.30;;
18263;SDS011;9258;48.668;9.172;2022-07-23T18:30:30;7.85;;;7.15;;
18263;SDS011;9258;48.668;9.172;2022-07-23T18:33:32;8.60;;;7.78;;
18263;SDS011;9258;48.668;9.172;2022-07-23T18:36:34;9.23;;;7.32;;
18263;SDS011;9258;48.668;9.172;2022-07-23T18:39:35;8.57;;;6.88;;
18263;SDS011;9258;48.668;9.172;2022-07-23T18:42:38;8.10;;;7.30;;
18263;SDS011;9258;48.668;9.172;2022-07-23T18:45:39;9.13;;;7.25;;
18263;SDS011;9258;48.668;9.172;2022-07-23T18:48:41;7.72;;;7.03;;
18263;SDS011;9258;48.668;9.172;2022-07-23T18:51:42;8.25;;;6.78;;
18263;SDS011;9258;48.668;9.172;2022-07-23T18:54:44;7.25;;;6.45;;